Time;durP1;ratioP1;P1;durP2;ratioP2;P2;SDS_P1;SDS_P2;PMS_P1;PMS_P2;Temp;Humidity;BMP_temperature;BMP_pressure;BME280_temperature;BME280_humidity;BME280_pressure;Samples;Min_cycle;Max_cycle;Signal;HPM_P1;HPM_P2
2022/10/01 00:01:07;;;;;;;8.20;2.10;;;;;;;11.24;100.00;100106.63;4921548;29;20495;-81
2022/10/01 00:03:35;;;;;;;6.72;2.05;;;;;;;11.84;100.00;100203.06;4921516;29;20028;-81
2022/10/01 00:06:05;;;;;;;9.43;2.10;;;;;;;11.54;100.00;100144.47;4897278;29;20036;-81
2022/10/01 00:08:31;;;;;;;7.03;1.92;;;;;;;11.81;100.00;100184.63;4911728;29;20424;-81
2022/10/01 00:11:00;;;;;;;7.22;2.47;;;;;;;11.63;100.00;100150.41;4874623;29;20523;-81
2022/10/01 00:13:25;;;;;;;8.70;2.40;;;;;;;11.68;100.00;100156.75;4898991;29;20410;-81
2022/10/01 00:15:50;;;;;;;7.88;2.05;;;;;;;11.88;100.00;100182.72;4893726;29;20035;-81
2022/10/01 00:18:16;;;;;;;9.85;2.88;;;;;;;11.90;100.00;100181.47;4907329;29;20043;-81
2022/10/01 00:20:42;;;;;;;7.75;2.60;;;;;;;11.76;100.00;100150.28;4897254;29;20045;-81
2022/10/01 00:23:12;;;;;;;8.70;3.15;;;;;;;11.95;100.00;100178.09;4905428;29;20063;-81
2022/10/01 00:25:38;;;;;;;9.57;2.72;;;;;;;11.88;100.00;100153.88;4906564;29;20108;-80
2022/10/01 00:28:04;;;;;;;9.63;2.50;;;;;;;12.07;100.00;100170.91;4891723;29;20115;-81
2022/10/01 00:30:30;;;;;;;5.85;2.50;;;;;;;11.75;100.00;100122.50;4892347;29;20041;-81
2022/10/01 00:32:55;;;;;;;10.02;3.00;;;;;;;12.12;100.00;100164.84;4922918;29;20081;-80
2022/10/01 00:35:22;;;;;;;15.80;2.22;;;;;;;12.14;100.00;100168.97;4906313;29;20151;-80
2022/10/01 00:37:49;;;;;;;9.18;2.80;;;;;;;11.98;100.00;100137.19;4886444;29;20036;-80
2022/10/01 00:40:16;;;;;;;11.00;3.10;;;;;;;12.02;100.00;100140.25;4906462;29;20063;-80
2022/10/01 00:42:42;;;;;;;10.05;3.00;;;;;;;12.06;100.00;100152.28;4891616;29;20036;-81
2022/10/01 00:45:11;;;;;;;20.08;3.63;;;;;;;11.56;100.00;100063.44;4892148;29;20047;-81
2022/10/01 00:47:43;;;;;;;11.18;3.00;;;;;;;12.11;100.00;100155.91;4925928;29;20092;-80
2022/10/01 00:50:27;;;;;;;13.40;3.60;;;;;;;11.90;100.00;100116.75;4898396;29;20080;-80
2022/10/01 00:52:58;;;;;;;8.32;3.10;;;;;;;12.15;100.00;100149.06;4915366;29;20036;-81
2022/10/01 00:55:29;;;;;;;9.75;3.35;;;;;;;11.93;100.00;100113.63;4907743;29;20044;-81
2022/10/01 00:57:55;;;;;;;9.95;3.58;;;;;;;12.15;100.00;100140.13;4913014;29;20044;-81
2022/10/01 01:00:21;;;;;;;15.48;3.83;;;;;;;12.15;100.00;100134.72;4901970;29;20029;-80
2022/10/01 01:02:47;;;;;;;12.35;3.78;;;;;;;11.91;100.00;100088.75;4897900;29;20043;-80
2022/10/01 01:05:13;;;;;;;12.77;4.20;;;;;;;12.18;100.00;100127.00;4886100;29;20036;-81
2022/10/01 01:07:44;;;;;;;14.70;4.45;;;;;;;11.88;100.00;100069.50;4898897;29;20039;-80
2022/10/01 01:10:12;;;;;;;12.15;4.85;;;;;;;12.20;100.00;100124.91;4892134;29;20029;-80
2022/10/01 01:12:58;;;;;;;13.77;5.38;;;;;;;12.25;100.00;100128.78;4874897;29;20032;-81
2022/10/01 01:15:38;;;;;;;13.07;5.82;;;;;;;12.10;100.00;100086.88;4915545;29;20411;-81
2022/10/01 01:18:10;;;;;;;12.13;4.90;;;;;;;12.32;100.00;100124.16;4904467;29;20119;-80
2022/10/01 01:20:53;;;;;;;14.20;5.50;;;;;;;12.36;100.00;100119.94;4905231;29;20037;-81
2022/10/01 01:23:35;;;;;;;14.15;4.85;;;;;;;12.37;100.00;100113.50;4897269;29;20028;-81
2022/10/01 01:26:12;;;;;;;14.23;5.15;;;;;;;12.37;100.00;100119.72;4904599;29;20095;-81
2022/10/01 01:28:46;;;;;;;9.82;5.20;;;;;;;12.31;100.00;100095.53;4907177;29;20036;-81
2022/10/01 01:31:24;;;;;;;15.25;5.90;;;;;;;12.35;100.00;100112.88;4914046;29;20036;-80
2022/10/01 01:33:54;;;;;;;11.23;6.18;;;;;;;12.12;100.00;100070.44;4898698;29;20032;-80
2022/10/01 01:36:26;;;;;;;14.50;6.53;;;;;;;11.86;100.00;100018.53;4893089;29;20099;-80
2022/10/01 01:38:56;;;;;;;14.40;6.75;;;;;;;12.41;100.00;100111.97;4911407;29;20614;-80
2022/10/01 01:41:26;;;;;;;18.73;7.40;;;;;;;12.28;100.00;100087.88;4884024;29;20091;-79
2022/10/01 01:43:57;;;;;;;13.35;7.35;;;;;;;12.38;100.00;100105.19;4887059;29;20032;-80
2022/10/01 01:46:30;;;;;;;16.10;7.60;;;;;;;12.24;100.00;100082.13;4909019;29;20035;-80
2022/10/01 01:48:58;;;;;;;18.70;9.00;;;;;;;12.39;100.00;100090.63;4895957;29;20444;-80
2022/10/01 01:51:44;;;;;;;14.05;8.38;;;;;;;12.40;100.00;100089.59;4899650;29;20139;-80
2022/10/01 01:54:11;;;;;;;14.98;8.68;;;;;;;12.15;100.00;100048.41;4918349;29;20036;-80
2022/10/01 01:56:37;;;;;;;14.63;9.18;;;;;;;12.31;100.00;100063.16;4907629;29;20111;-80
2022/10/01 01:59:03;;;;;;;14.60;8.90;;;;;;;12.45;100.00;100078.94;4879763;29;20123;-80
2022/10/01 02:01:39;;;;;;;15.88;9.68;;;;;;;12.48;100.00;100074.13;4885527;29;20081;-80
2022/10/01 02:04:28;;;;;;;13.77;9.05;;;;;;;12.49;100.00;100071.22;4894046;29;20032;-80
2022/10/01 02:07:05;;;;;;;18.58;9.10;;;;;;;12.48;100.00;100072.25;4911023;29;20039;-80
2022/10/01 02:10:16;;;;;;;16.27;9.00;;;;;;;12.47;100.00;100059.81;4884409;29;20092;-80
2022/10/01 02:12:53;;;;;;;14.38;8.48;;;;;;;12.45;100.00;100057.34;4795917;29;20053;-80
2022/10/01 02:15:50;;;;;;;18.55;8.30;;;;;;;12.32;100.00;100032.44;4892254;29;20037;-79
2022/10/01 02:18:27;;;;;;;16.42;8.52;;;;;;;12.41;100.00;100061.53;4887146;29;20032;-80
2022/10/01 02:21:02;;;;;;;17.52;8.82;;;;;;;12.41;100.00;100055.31;4891740;29;20032;-80
2022/10/01 02:23:32;;;;;;;13.90;8.55;;;;;;;12.20;100.00;100033.19;4900817;29;20117;-80
2022/10/01 02:26:04;;;;;;;17.05;8.70;;;;;;;12.40;100.00;100053.69;4898155;29;20097;-80
2022/10/01 02:28:33;;;;;;;13.80;8.77;;;;;;;12.22;100.00;100033.81;4869995;29;20040;-80
2022/10/01 02:31:00;;;;;;;17.42;8.73;;;;;;;12.40;100.00;100056.38;4881970;29;20046;-80
2022/10/01 02:33:32;;;;;;;15.45;7.90;;;;;;;11.93;100.00;99980.69;4895634;29;20039;-80
2022/10/01 02:36:00;;;;;;;15.60;8.52;;;;;;;12.37;100.00;100054.16;4902523;29;20348;-80
2022/10/01 02:38:27;;;;;;;11.63;8.25;;;;;;;12.33;100.00;100052.97;4906490;29;20168;-80
2022/10/01 02:40:56;;;;;;;13.75;8.07;;;;;;;12.28;100.00;100042.84;4898989;29;20088;-80
2022/10/01 02:43:30;;;;;;;13.70;8.60;;;;;;;12.08;100.00;100010.75;4912704;29;20502;-80
2022/10/01 02:46:02;;;;;;;13.32;8.00;;;;;;;12.16;100.00;100031.22;4902216;29;20479;-80
2022/10/01 02:48:27;;;;;;;14.98;8.68;;;;;;;12.07;100.00;100019.09;4890303;29;20543;-80
2022/10/01 02:51:08;;;;;;;16.30;8.77;;;;;;;11.95;100.00;100005.53;4876848;29;20056;-80
2022/10/01 02:53:39;;;;;;;17.20;9.52;;;;;;;11.91;100.00;100012.44;4883140;29;20041;-80
2022/10/01 02:56:06;;;;;;;16.17;9.48;;;;;;;12.08;100.00;100031.50;4910103;29;20539;-80
2022/10/01 02:58:32;;;;;;;15.40;9.25;;;;;;;12.06;100.00;100025.53;4889631;29;20039;-80
2022/10/01 03:00:58;;;;;;;16.85;10.45;;;;;;;12.04;100.00;100025.75;4886105;29;20051;-80
2022/10/01 03:03:24;;;;;;;68.47;27.92;;;;;;;11.96;100.00;100018.81;4880378;29;20028;-80
2022/10/01 03:05:50;;;;;;;17.38;10.43;;;;;;;12.00;100.00;100011.09;4895634;29;20531;-81
2022/10/01 03:08:15;;;;;;;18.45;10.52;;;;;;;11.97;100.00;100011.53;4905648;29;20039;-80
2022/10/01 03:10:41;;;;;;;20.88;11.32;;;;;;;11.86;100.00;99993.44;4888096;29;20040;-80
2022/10/01 03:13:06;;;;;;;22.67;12.50;;;;;;;11.76;100.00;99980.47;4893952;29;20044;-81
2022/10/01 03:15:33;;;;;;;16.90;10.57;;;;;;;11.43;100.00;99927.00;4867548;29;20044;-80
2022/10/01 03:17:59;;;;;;;18.13;11.73;;;;;;;11.87;100.00;99990.50;4902500;29;20079;-81
2022/10/01 03:20:25;;;;;;;19.73;11.32;;;;;;;11.95;100.00;100005.53;4873186;29;20055;-81
2022/10/01 03:22:50;;;;;;;18.65;11.48;;;;;;;11.95;100.00;100008.22;4855702;29;20037;-80
2022/10/01 03:25:16;;;;;;;23.33;11.45;;;;;;;11.90;100.00;99991.94;4896280;29;20561;-81
2022/10/01 03:27:43;;;;;;;20.30;13.45;;;;;;;11.98;100.00;100003.19;4867385;29;20036;-80
2022/10/01 03:30:09;;;;;;;23.70;13.93;;;;;;;11.98;100.00;99994.31;4892164;29;20488;-80
2022/10/01 03:32:34;;;;;;;13.80;11.13;;;;;;;11.96;100.00;99988.34;4889027;29;20076;-81
2022/10/01 03:35:00;;;;;;;18.38;12.07;;;;;;;11.91;100.00;99972.00;4885562;29;20072;-81
2022/10/01 03:37:26;;;;;;;17.13;11.27;;;;;;;11.75;100.00;99952.72;4880008;29;20177;-80
2022/10/01 03:39:51;;;;;;;29.15;15.93;;;;;;;11.67;100.00;99931.44;4900397;29;20524;-80
2022/10/01 03:42:16;;;;;;;18.20;11.05;;;;;;;11.79;100.00;99957.63;4874927;29;20040;-80
2022/10/01 03:44:42;;;;;;;19.67;11.32;;;;;;;11.99;100.00;99982.50;4874576;29;20127;-80
2022/10/01 03:47:08;;;;;;;34.97;18.23;;;;;;;11.94;100.00;99977.75;4901572;29;20048;-81
2022/10/01 03:49:34;;;;;;;18.42;12.40;;;;;;;11.93;100.00;99969.91;4879214;29;20044;-80
2022/10/01 03:52:01;;;;;;;21.15;13.60;;;;;;;11.96;100.00;99972.16;4849427;29;20583;-81
2022/10/01 03:54:26;;;;;;;18.27;11.68;;;;;;;11.97;100.00;99979.19;4872653;29;20403;-80
2022/10/01 03:56:52;;;;;;;17.90;10.73;;;;;;;11.79;100.00;99949.53;4902820;29;20032;-80
2022/10/01 03:59:18;;;;;;;18.23;10.68;;;;;;;11.82;100.00;99958.00;4894344;29;20048;-80
2022/10/01 04:01:44;;;;;;;16.38;10.95;;;;;;;11.92;100.00;99977.19;4882837;29;20543;-80
2022/10/01 04:04:09;;;;;;;13.00;10.45;;;;;;;11.92;100.00;99979.88;4891880;29;20037;-81
2022/10/01 04:06:34;;;;;;;17.90;11.80;;;;;;;11.79;100.00;99963.00;4857859;29;20497;-80
2022/10/01 04:09:00;;;;;;;19.15;10.77;;;;;;;11.36;100.00;99883.16;4885228;29;20064;-80
2022/10/01 04:11:25;;;;;;;18.35;11.98;;;;;;;11.74;100.00;99953.72;4879319;29;20076;-79
2022/10/01 04:13:51;;;;;;;20.55;11.68;;;;;;;11.77;100.00;99957.84;4883194;29;20050;-79
2022/10/01 04:16:16;;;;;;;15.93;10.80;;;;;;;11.83;100.00;99969.59;4907888;29;20127;-79
2022/10/01 04:18:41;;;;;;;16.50;10.48;;;;;;;11.82;100.00;99974.19;4858457;29;20047;-80
2022/10/01 04:21:07;;;;;;;19.05;10.65;;;;;;;11.80;100.00;99970.88;4868593;29;20040;-80
2022/10/01 04:23:34;;;;;;;14.77;10.50;;;;;;;11.80;100.00;99967.38;4911535;29;20036;-80
2022/10/01 04:26:01;;;;;;;24.40;12.98;;;;;;;11.63;100.00;99942.91;4868943;29;20068;-81
2022/10/01 04:28:27;;;;;;;16.50;12.38;;;;;;;11.32;100.00;99900.81;4873860;29;20036;-80
2022/10/01 04:31:23;;;;;;;15.13;10.75;;;;;;;11.73;100.00;99959.38;4891441;29;20506;-82
2022/10/01 04:33:37;;;;;;;18.73;10.88;;;;;;;11.57;100.00;99941.94;4898931;29;20074;-80
2022/10/01 04:36:03;;;;;;;19.88;11.90;;;;;;;11.68;100.00;99968.13;4876801;29;20559;-80
2022/10/01 04:38:28;;;;;;;15.90;10.88;;;;;;;11.63;100.00;99959.09;4887856;29;20046;-81
2022/10/01 04:40:54;;;;;;;16.70;10.45;;;;;;;11.65;100.00;99967.75;4872383;29;20050;-80
2022/10/01 04:43:19;;;;;;;15.13;10.23;;;;;;;11.50;100.00;99938.50;4894442;29;20044;-80
2022/10/01 04:45:44;;;;;;;17.65;11.27;;;;;;;11.63;100.00;99951.81;4898681;29;20484;-80
2022/10/01 04:48:10;;;;;;;18.25;10.60;;;;;;;11.63;100.00;99965.28;4908403;29;20063;-80
2022/10/01 04:50:35;;;;;;;20.80;10.50;;;;;;;11.62;100.00;99966.34;4873048;29;20139;-80
2022/10/01 04:53:00;;;;;;;11.98;9.65;;;;;;;11.52;100.00;99949.88;4914964;29;20036;-80
2022/10/01 04:55:26;;;;;;;16.77;10.68;;;;;;;11.45;100.00;99928.41;4881742;29;20038;-80
2022/10/01 04:57:51;;;;;;;16.90;10.15;;;;;;;11.57;100.00;99950.03;4867183;29;20395;-80
2022/10/01 05:00:23;;;;;;;18.48;11.70;;;;;;;11.57;100.00;99952.72;4891494;29;20500;-81
2022/10/01 05:02:49;;;;;;;16.40;10.32;;;;;;;11.40;100.00;99930.16;4894075;29;20043;-79
2022/10/01 05:05:16;;;;;;;20.25;10.70;;;;;;;11.57;100.00;99955.41;4886488;29;20452;-80
2022/10/01 05:07:42;;;;;;;16.58;9.68;;;;;;;11.58;100.00;99951.66;4897413;29;20100;-80
2022/10/01 05:10:15;;;;;;;22.98;11.18;;;;;;;11.45;100.00;99931.09;4904790;29;20043;-80
2022/10/01 05:12:41;;;;;;;17.73;10.73;;;;;;;11.56;100.00;99951.09;4887051;29;20044;-80
2022/10/01 05:15:07;;;;;;;12.80;9.73;;;;;;;11.56;100.00;99943.00;4881653;29;20158;-81
2022/10/01 05:17:33;;;;;;;18.92;10.50;;;;;;;11.47;100.00;99933.56;4902627;29;20051;-80
2022/10/01 05:20:00;;;;;;;16.05;10.20;;;;;;;11.61;100.00;99945.81;4897423;29;20041;-81
2022/10/01 05:22:26;;;;;;;18.13;11.13;;;;;;;11.48;100.00;99932.53;4890863;29;20043;-81
2022/10/01 05:24:51;;;;;;;15.38;9.48;;;;;;;11.62;100.00;99939.41;4882567;29;20039;-81
2022/10/01 05:27:17;;;;;;;16.50;9.70;;;;;;;11.61;100.00;99940.44;4880835;29;20044;-80
2022/10/01 05:29:43;;;;;;;15.18;9.30;;;;;;;11.38;100.00;99906.13;4910896;29;20075;-80
2022/10/01 05:32:09;;;;;;;17.50;8.98;;;;;;;11.60;100.00;99946.88;4907114;29;20036;-80
2022/10/01 05:34:35;;;;;;;16.52;10.50;;;;;;;11.62;100.00;99949.34;4893905;29;20036;-81
2022/10/01 05:37:01;;;;;;;15.00;9.95;;;;;;;11.62;100.00;99935.88;4879089;29;20039;-81
2022/10/01 05:39:27;;;;;;;14.80;9.27;;;;;;;11.46;100.00;99916.59;4868989;29;20067;-81
2022/10/01 05:41:54;;;;;;;16.88;9.60;;;;;;;11.31;100.00;99893.78;4870237;29;20395;-80
2022/10/01 05:44:20;;;;;;;14.95;10.00;;;;;;;11.41;100.00;99910.22;4877927;29;20040;-81
2022/10/01 05:46:46;;;;;;;16.17;9.68;;;;;;;11.59;100.00;99934.47;4892694;29;20046;-80
2022/10/01 05:49:11;;;;;;;17.92;9.68;;;;;;;11.59;100.00;99936.31;4886303;29;20127;-80
2022/10/01 05:51:36;;;;;;;14.65;9.60;;;;;;;11.59;100.00;99942.56;4913836;29;20091;-81
2022/10/01 05:54:03;;;;;;;13.02;9.43;;;;;;;11.29;100.00;99894.84;4904261;29;20122;-81
2022/10/01 05:56:29;;;;;;;13.35;9.48;;;;;;;11.49;100.00;99934.19;4908662;29;20064;-79
2022/10/01 05:58:54;;;;;;;13.55;9.30;;;;;;;11.61;100.00;99939.63;4910064;29;20066;-81
2022/10/01 06:01:20;;;;;;;14.70;9.00;;;;;;;11.61;100.00;99935.03;4881125;29;20076;-79
2022/10/01 06:03:49;;;;;;;14.38;9.75;;;;;;;11.64;100.00;99937.28;4896744;29;20103;-79
2022/10/01 06:06:22;;;;;;;15.15;8.90;;;;;;;11.50;100.00;99914.28;4887619;29;20067;-78
2022/10/01 06:08:48;;;;;;;19.40;10.00;;;;;;;11.69;100.00;99936.63;4907012;29;20043;-80
2022/10/01 06:11:13;;;;;;;16.67;11.13;;;;;;;11.62;100.00;99925.94;4913070;29;20544;-81
2022/10/01 06:13:43;;;;;;;15.13;9.73;;;;;;;11.48;100.00;99898.31;4867023;29;20040;-81
2022/10/01 06:16:09;;;;;;;13.88;9.02;;;;;;;11.72;100.00;99928.91;4888016;29;20044;-80
2022/10/01 06:18:35;;;;;;;15.40;9.95;;;;;;;11.73;100.00;99927.84;4890265;29;20056;-79
2022/10/01 06:21:00;;;;;;;12.75;8.63;;;;;;;11.59;100.00;99895.91;4893987;29;20040;-78
2022/10/01 06:23:26;;;;;;;14.52;9.25;;;;;;;11.69;100.00;99910.50;4889305;29;20040;-80
2022/10/01 06:25:51;;;;;;;17.40;9.60;;;;;;;11.68;100.00;99899.94;4880283;29;20040;-81
2022/10/01 06:28:17;;;;;;;15.18;9.80;;;;;;;11.69;100.00;99898.91;4856873;29;20043;-80
2022/10/01 06:30:44;;;;;;;15.20;8.80;;;;;;;11.68;100.00;99895.34;4876768;29;20526;-81
2022/10/01 06:33:16;;;;;;;13.65;8.90;;;;;;;11.62;100.00;99872.03;4896549;29;20036;-81
2022/10/01 06:35:44;;;;;;;15.70;8.73;;;;;;;11.91;100.00;99918.91;4916990;29;20036;-81
2022/10/01 06:38:10;;;;;;;11.68;8.50;;;;;;;11.87;100.00;99909.63;4888017;29;20510;-81
2022/10/01 06:40:37;;;;;;;13.68;8.50;;;;;;;11.94;100.00;99918.44;4907230;29;20056;-82
2022/10/01 06:43:02;;;;;;;11.10;7.93;;;;;;;11.73;100.00;99865.84;4895272;29;20514;-81
2022/10/01 06:45:29;;;;;;;13.25;8.30;;;;;;;11.98;100.00;99908.03;4885975;29;20044;-80
2022/10/01 06:48:02;;;;;;;13.40;7.97;;;;;;;12.00;100.00;99897.84;4886456;29;20028;-80
2022/10/01 06:50:28;;;;;;;12.13;8.07;;;;;;;12.08;100.00;99913.69;4897566;29;20139;-79
2022/10/01 06:52:54;;;;;;;13.98;8.32;;;;;;;12.11;100.00;99907.81;4880086;29;20067;-79
2022/10/01 06:55:27;;;;;;;13.73;8.65;;;;;;;12.01;100.00;99877.91;4901624;29;20036;-80
2022/10/01 06:57:58;;;;;;;15.93;7.88;;;;;;;12.19;100.00;99910.19;4896214;29;20032;-79
2022/10/01 07:00:25;;;;;;;13.95;8.07;;;;;;;12.09;100.00;99888.38;4911390;29;20436;-80
2022/10/01 07:02:51;;;;;;;16.95;7.70;;;;;;;11.83;100.00;99840.22;4891721;29;20060;-81
2022/10/01 07:05:17;;;;;;;12.55;7.65;;;;;;;12.27;100.00;99895.53;4889647;29;20483;-81
2022/10/01 07:07:47;;;;;;;9.88;7.70;;;;;;;12.19;100.00;99880.53;4887904;29;20052;-80
2022/10/01 07:10:12;;;;;;;14.15;8.10;;;;;;;12.33;100.00;99891.09;4896684;29;20047;-81
2022/10/01 07:12:38;;;;;;;11.20;7.50;;;;;;;12.29;100.00;99877.25;4921029;29;20047;-81
2022/10/01 07:15:05;;;;;;;12.73;7.05;;;;;;;12.30;100.00;99864.59;4889661;29;20043;-81
2022/10/01 07:17:31;;;;;;;13.45;7.60;;;;;;;12.42;100.00;99892.41;4901008;29;20040;-80
2022/10/01 07:19:57;;;;;;;10.40;6.95;;;;;;;12.27;100.00;99859.66;4874082;29;20049;-80
2022/10/01 07:22:23;;;;;;;9.88;6.78;;;;;;;12.07;100.00;99823.06;4890821;29;20508;-81
2022/10/01 07:24:50;;;;;;;12.48;7.15;;;;;;;12.55;100.00;99881.38;4875663;29;20415;-80
2022/10/01 07:27:16;;;;;;;11.00;7.05;;;;;;;12.57;100.00;99881.13;4906151;29;20064;-81
2022/10/01 07:29:42;;;;;;;7.95;6.43;;;;;;;12.41;100.00;99829.50;4896948;29;20036;-81
2022/10/01 07:32:09;;;;;;;10.50;6.85;;;;;;;12.68;100.00;99873.06;4900475;29;20029;-81
2022/10/01 07:34:38;;;;;;;11.55;6.40;;;;;;;12.71;100.00;99874.44;4889963;29;20037;-81
2022/10/01 07:37:04;;;;;;;8.95;6.28;;;;;;;12.51;100.00;99837.00;4905015;29;20036;-81
2022/10/01 07:39:29;;;;;;;12.93;6.40;;;;;;;12.58;100.00;99839.59;4897344;29;20099;-81
2022/10/01 07:41:55;;;;;;;10.25;6.57;;;;;;;12.66;100.00;99853.56;4889502;29;20036;-81
2022/10/01 07:44:22;;;;;;;13.98;6.22;;;;;;;12.77;100.00;99862.69;4877248;29;20095;-81
2022/10/01 07:46:47;;;;;;;9.88;6.10;;;;;;;12.82;100.00;99859.31;4884857;29;20507;-81
2022/10/01 07:49:14;;;;;;;9.38;6.18;;;;;;;12.51;100.00;99807.34;4873614;29;20040;-80
2022/10/01 07:51:42;;;;;;;10.77;6.00;;;;;;;12.63;100.00;99818.94;4887764;29;20127;-81
2022/10/01 07:54:08;;;;;;;11.85;5.80;;;;;;;12.92;100.00;99849.53;4893520;29;20044;-80
2022/10/01 07:56:34;;;;;;;10.50;6.10;;;;;;;12.97;100.00;99851.50;4873986;29;20091;-81
2022/10/01 07:58:59;;;;;;;10.90;5.20;;;;;;;13.01;100.00;99847.28;4870555;29;20040;-81
2022/10/01 08:01:25;;;;;;;12.80;5.32;;;;;;;12.60;100.00;99770.03;4880810;29;20033;-82
2022/10/01 08:03:51;;;;;;;10.65;5.13;;;;;;;12.89;100.00;99811.41;4881735;29;20453;-81
2022/10/01 08:06:18;;;;;;;7.97;4.72;;;;;;;12.99;100.00;99817.00;4888893;29;20423;-82
2022/10/01 08:08:44;;;;;;;9.52;5.03;;;;;;;13.19;100.00;99849.00;4889905;29;20028;-81
2022/10/01 08:11:12;;;;;;;10.02;5.03;;;;;;;12.91;100.00;99795.75;4879795;29;20729;-80
2022/10/01 08:13:38;;;;;;;8.35;4.53;;;;;;;13.29;100.00;99834.91;4913284;29;20043;-82
2022/10/01 08:16:06;;;;;;;8.07;5.07;;;;;;;13.33;100.00;99831.47;4872589;29;20048;-81
2022/10/01 08:18:32;;;;;;;7.00;4.40;;;;;;;13.40;100.00;99828.63;4898232;29;20047;-82
2022/10/01 08:21:00;;;;;;;9.05;4.50;;;;;;;13.24;100.00;99796.94;4892173;29;20041;-82
2022/10/01 08:23:45;;;;;;;10.23;4.50;;;;;;;13.40;100.00;99824.03;4888770;29;20040;-81
2022/10/01 08:26:10;;;;;;;11.30;4.20;;;;;;;13.31;100.00;99809.31;4870182;29;20047;-82
2022/10/01 08:28:36;;;;;;;7.20;4.05;;;;;;;13.36;100.00;99813.97;4878370;29;20559;-81
2022/10/01 08:31:06;;;;;;;8.15;4.20;;;;;;;13.35;100.00;99812.34;4892946;29;20115;-81
2022/10/01 08:33:32;;;;;;;8.38;4.60;;;;;;;13.22;100.00;99796.38;4874711;29;20116;-83
2022/10/01 08:36:08;;;;;;;10.07;4.60;;;;;;;13.31;100.00;99797.66;4911438;29;20070;-81
2022/10/01 08:38:34;;;;;;;10.57;4.47;;;;;;;13.43;100.00;99817.34;4895630;29;20043;-82
2022/10/01 08:41:14;;;;;;;10.57;4.18;;;;;;;13.39;100.00;99795.38;4895596;29;20052;-82
2022/10/01 08:43:40;;;;;;;8.02;4.00;;;;;;;13.31;100.00;99803.91;4911139;29;20005;-82
2022/10/01 08:46:12;;;;;;;10.13;4.47;;;;;;;13.21;100.00;99797.44;4864747;29;20036;-82
2022/10/01 08:48:57;;;;;;;10.75;4.30;;;;;;;13.02;100.00;99767.91;4915000;29;20041;-82
2022/10/01 08:51:26;;;;;;;8.85;4.00;;;;;;;13.24;100.00;99797.78;4899798;29;20060;-82
2022/10/01 08:53:57;;;;;;;7.22;3.92;;;;;;;13.17;100.00;99787.09;4887066;29;20036;-82
2022/10/01 08:56:43;;;;;;;8.10;3.75;;;;;;;13.35;100.00;99794.25;4897398;29;20048;-82
2022/10/01 08:59:25;;;;;;;10.07;3.97;;;;;;;13.19;100.00;99750.94;4893466;29;20104;-82
2022/10/01 09:01:50;;;;;;;7.05;3.60;;;;;;;13.28;100.00;99755.75;4884214;29;20033;-82
2022/10/01 09:04:16;;;;;;;9.45;3.60;;;;;;;13.59;100.00;99797.63;4860391;29;20448;-82
2022/10/01 09:06:43;;;;;;;6.68;3.40;;;;;;;13.47;100.00;99769.84;4880078;29;20512;-82
2022/10/01 09:09:31;;;;;;;9.82;3.58;;;;;;;13.54;100.00;99789.44;4874020;29;20043;-82
2022/10/01 09:12:27;;;;;;;10.30;4.25;;;;;;;13.56;100.00;99772.97;4886599;29;20036;-82
2022/10/01 09:15:20;;;;;;;7.00;3.50;;;;;;;13.69;100.00;99774.56;4883978;29;20048;-82
2022/10/01 09:18:05;;;;;;;9.35;3.28;;;;;;;13.62;100.00;99753.91;4904743;29;20100;-82
2022/10/01 09:20:51;;;;;;;11.77;4.40;;;;;;;13.48;100.00;99749.06;4888473;29;20024;-81
2022/10/01 09:23:34;;;;;;;8.27;3.65;;;;;;;13.65;100.00;99782.34;4873380;29;20564;-83
2022/10/01 09:26:00;;;;;;;5.28;3.35;;;;;;;13.65;100.00;99752.59;4889804;29;20040;-83
2022/10/01 09:28:32;;;;;;;9.35;3.70;;;;;;;13.81;100.00;99776.13;4862178;29;20037;-83
2022/10/01 09:31:12;;;;;;;7.20;3.22;;;;;;;13.92;100.00;99749.25;4902889;29;20084;-83
2022/10/01 09:33:47;;;;;;;7.25;3.30;;;;;;;14.12;100.00;99765.78;4906293;29;20123;-83
2022/10/01 09:36:36;;;;;;;4.57;2.85;;;;;;;14.19;100.00;99771.81;4887278;29;20040;-84
2022/10/01 09:39:33;;;;;;;6.75;2.97;;;;;;;14.32;100.00;99765.25;4907047;29;20049;-83
2022/10/01 09:41:59;;;;;;;6.60;3.45;;;;;;;14.32;100.00;99766.06;4901356;29;20039;-83
2022/10/01 09:44:29;;;;;;;6.93;2.85;;;;;;;14.12;100.00;99727.09;4887855;29;20032;-83
2022/10/01 09:46:55;;;;;;;6.05;3.00;;;;;;;14.14;100.00;99722.22;4892330;29;20032;-83
2022/10/01 09:49:38;;;;;;;5.30;2.70;;;;;;;14.36;100.00;99758.25;4906965;29;20140;-82
2022/10/01 09:52:25;;;;;;;6.57;2.95;;;;;;;14.17;100.00;99738.81;4887856;29;20075;-83
2022/10/01 09:55:01;;;;;;;5.88;3.00;;;;;;;14.29;100.00;99757.63;4900308;29;20059;-83
2022/10/01 09:57:39;;;;;;;5.25;2.78;;;;;;;14.34;100.00;99741.47;4911331;29;20036;-82
2022/10/01 10:00:13;;;;;;;7.13;2.80;;;;;;;14.56;100.00;99758.56;4887675;29;20029;-82
2022/10/01 10:02:43;;;;;;;4.90;3.10;;;;;;;14.68;100.00;99757.63;4906143;29;20087;-82
2022/10/01 10:05:15;;;;;;;5.40;2.75;;;;;;;14.76;100.00;99740.94;4898339;29;20043;-82
2022/10/01 10:07:50;;;;;;;9.38;2.78;;;;;;;14.61;100.00;99702.88;4906779;29;20036;-82
2022/10/01 10:10:27;;;;;;;6.55;3.22;;;;;;;14.69;100.00;99713.25;4898167;29;20044;-83
2022/10/01 10:13:00;;;;;;;8.60;2.90;;;;;;;14.78;100.00;99720.66;4900777;29;20095;-82
2022/10/01 10:15:30;;;;;;;7.60;2.97;;;;;;;14.66;100.00;99683.97;4891988;29;20028;-83
2022/10/01 10:17:57;;;;;;;7.80;3.10;;;;;;;15.01;100.00;99735.00;4896110;29;20032;-83
2022/10/01 10:20:31;;;;;;;6.80;2.75;;;;;;;14.80;100.00;99701.44;4896202;29;20032;-82
2022/10/01 10:23:28;;;;;;;8.75;2.90;;;;;;;14.40;100.00;99659.25;4927334;29;20024;-83
2022/10/01 10:26:01;;;;;;;5.97;3.05;;;;;;;14.74;100.00;99733.06;4905407;29;20036;-82
2022/10/01 10:28:29;;;;;;;7.30;2.65;;;;;;;14.34;100.00;99679.22;4892296;29;20031;-82
2022/10/01 10:30:56;;;;;;;6.70;3.03;;;;;;;14.47;100.00;99724.88;4936417;29;20115;-83
2022/10/01 10:33:25;;;;;;;10.82;3.10;;;;;;;14.42;100.00;99735.63;4892879;29;20040;-82
2022/10/01 10:36:03;;;;;;;6.28;2.75;;;;;;;14.09;100.00;99702.16;4872035;29;20063;-81
2022/10/01 10:38:33;;;;;;;8.05;3.50;;;;;;;14.10;100.00;99720.03;4914516;29;20406;-82
2022/10/01 10:40:59;;;;;;;9.63;3.45;;;;;;;13.62;100.00;99666.59;4911763;29;20114;-82
2022/10/01 10:43:29;;;;;;;8.57;3.30;;;;;;;13.82;100.00;99712.84;4892770;29;20056;-82
2022/10/01 10:45:56;;;;;;;6.88;3.40;;;;;;;13.80;100.00;99735.78;4907531;29;20372;-82
2022/10/01 10:48:27;;;;;;;7.03;3.40;;;;;;;13.39;100.00;99657.56;4882978;29;20045;-82
2022/10/01 10:51:00;;;;;;;7.60;3.55;;;;;;;13.83;100.00;99740.72;4911969;29;20115;-82
2022/10/01 10:53:28;;;;;;;9.77;4.32;;;;;;;13.74;100.00;99737.63;4885468;29;20048;-81
2022/10/01 10:55:59;;;;;;;6.65;4.15;;;;;;;13.65;100.00;99730.16;4905322;29;20079;-81
2022/10/01 10:58:28;;;;;;;8.48;3.83;;;;;;;13.45;100.00;99717.94;4908682;29;20036;-80
2022/10/01 11:00:57;;;;;;;7.88;4.28;;;;;;;13.49;100.00;99732.59;4891095;29;20492;-79
2022/10/01 11:03:28;;;;;;;7.35;4.10;;;;;;;13.44;100.00;99731.69;4901764;29;20028;-80
2022/10/01 11:06:02;;;;;;;8.25;4.35;;;;;;;13.17;100.00;99695.25;4896775;29;20036;-80
2022/10/01 11:08:29;;;;;;;9.75;4.38;;;;;;;13.27;100.00;99704.66;4888799;29;20114;-80
2022/10/01 11:11:00;;;;;;;7.97;4.00;;;;;;;13.38;100.00;99736.19;4888630;29;20087;-79
2022/10/01 11:13:34;;;;;;;10.73;4.57;;;;;;;13.02;100.00;99692.31;4894766;29;20072;-78
2022/10/01 11:16:31;;;;;;;13.80;4.82;;;;;;;13.08;100.00;99707.53;4883856;29;20518;-78
2022/10/01 11:19:10;;;;;;;8.38;4.40;;;;;;;12.96;100.00;99719.47;4873838;29;20051;-79
2022/10/01 11:21:54;;;;;;;8.23;4.65;;;;;;;12.97;100.00;99727.31;4897378;29;20037;-79
2022/10/01 11:24:34;;;;;;;10.23;4.87;;;;;;;13.00;100.00;99729.53;4888821;29;20028;-79
2022/10/01 11:27:12;;;;;;;8.20;4.68;;;;;;;12.93;100.00;99729.66;4889431;29;20530;-78
2022/10/01 11:29:43;;;;;;;9.88;4.90;;;;;;;12.91;100.00;99728.25;4902097;29;20103;-80